createdAt,value
2019-05-06T00:02:13.838Z,6.15
2019-05-06T00:07:16.990Z,8.18
2019-05-06T00:12:19.932Z,6.65
2019-05-06T00:17:23.945Z,8.98
2019-05-06T00:22:27.234Z,6.47
2019-05-06T00:27:56.109Z,4.72
2019-05-06T00:32:59.175Z,7.45
2019-05-06T00:38:04.382Z,6.70
2019-05-06T00:43:08.615Z,5.37
2019-05-06T00:48:13.854Z,6.70
2019-05-06T00:53:18.783Z,7.13
2019-05-06T00:58:23.779Z,5.37
2019-05-06T01:03:28.690Z,4.60
2019-05-06T01:08:31.951Z,5.17
2019-05-06T01:13:40.540Z,6.00
2019-05-06T01:18:43.610Z,5.40
2019-05-06T01:23:46.848Z,4.58
2019-05-06T01:28:50.369Z,3.35
2019-05-06T01:33:53.668Z,2.37
2019-05-06T01:39:31.619Z,5.47
2019-05-06T01:44:34.581Z,5.12
2019-05-06T01:49:37.559Z,3.85
2019-05-06T01:54:40.610Z,2.65
2019-05-06T01:59:44.372Z,2.85
2019-05-06T02:04:47.485Z,3.83
2019-05-06T02:09:50.523Z,2.47
2019-05-06T02:14:54.346Z,3.08
2019-05-06T02:19:57.427Z,5.20
2019-05-06T02:25:05.980Z,5.25
2019-05-06T02:30:25.211Z,3.35
2019-05-06T02:35:41.509Z,3.75
2019-05-06T02:40:44.536Z,2.55
2019-05-06T02:45:47.489Z,4.42
2019-05-06T02:51:03.864Z,5.17
2019-05-06T02:56:07.285Z,4.05
2019-05-06T03:01:13.392Z,4.35
2019-05-06T03:06:15.413Z,6.05
2019-05-06T03:11:18.456Z,4.47
2019-05-06T03:16:23.783Z,5.00
2019-05-06T03:21:45.063Z,4.15
2019-05-06T03:26:56.136Z,3.55
2019-05-06T03:36:59.726Z,5.17
2019-05-06T03:42:04.675Z,3.72
2019-05-06T03:47:27.165Z,7.22
2019-05-06T03:52:30.157Z,5.37
2019-05-06T03:57:36.173Z,5.33
2019-05-06T04:02:39.912Z,4.13
2019-05-06T04:07:46.109Z,4.45
2019-05-06T04:12:53.552Z,3.35
2019-05-06T04:17:59.911Z,3.37
2019-05-06T04:23:23.527Z,4.47
2019-05-06T04:28:29.289Z,3.62
2019-05-06T04:33:33.517Z,3.80
2019-05-06T04:38:37.047Z,5.30
2019-05-06T04:43:40.421Z,6.58
2019-05-06T04:48:45.397Z,5.17
2019-05-06T04:53:48.454Z,3.08
2019-05-06T04:58:53.910Z,2.45
2019-05-06T05:03:56.878Z,1.67
2019-05-06T05:09:02.570Z,2.35
2019-05-06T05:14:25.940Z,3.05
2019-05-06T05:19:32.684Z,7.83
2019-05-06T05:24:37.866Z,5.62
2019-05-06T05:29:42.367Z,4.62
2019-05-06T05:34:45.818Z,5.53
2019-05-06T05:39:49.300Z,2.80
2019-05-06T05:44:53.467Z,2.98
2019-05-06T05:50:22.823Z,2.80
2019-05-06T05:55:26.561Z,5.10
2019-05-06T06:00:32.472Z,5.50
2019-05-06T06:10:49.536Z,4.08
2019-05-06T06:16:02.882Z,2.75
2019-05-06T06:21:32.027Z,4.00
2019-05-06T06:26:34.983Z,2.50
2019-05-06T06:32:09.374Z,4.80
2019-05-06T06:37:33.054Z,3.58
2019-05-06T06:42:36.028Z,2.65
2019-05-06T06:47:39.180Z,2.70
2019-05-06T06:52:42.931Z,2.95
2019-05-06T06:58:22.600Z,5.43
2019-05-06T07:03:37.772Z,2.37
2019-05-06T07:08:42.615Z,3.47
2019-05-06T07:13:53.244Z,4.20
2019-05-06T07:18:56.616Z,3.50
2019-05-06T07:23:59.578Z,4.75
2019-05-06T07:29:03.901Z,9.03
2019-05-06T07:34:07.728Z,2.35
2019-05-06T07:39:14.750Z,2.95
2019-05-06T07:44:33.339Z,2.27
2019-05-06T07:49:36.560Z,2.70
2019-05-06T07:54:39.572Z,2.60
2019-05-06T07:59:43.009Z,3.35
2019-05-06T08:04:46.156Z,3.70
2019-05-06T08:09:49.120Z,3.40
2019-05-06T08:14:52.501Z,9.75
2019-05-06T08:19:55.872Z,2.60
2019-05-06T08:24:58.965Z,2.50
2019-05-06T08:30:02.624Z,4.00
2019-05-06T08:35:06.182Z,2.30
2019-05-06T08:40:12.000Z,2.92
2019-05-06T08:45:15.501Z,2.43
2019-05-06T08:50:43.902Z,3.10
2019-05-06T08:55:47.563Z,3.27
2019-05-06T09:00:57.615Z,3.27
2019-05-06T09:06:02.998Z,7.05
2019-05-06T09:11:05.586Z,2.00
2019-05-06T09:16:08.673Z,1.92
2019-05-06T09:21:12.268Z,1.85
2019-05-06T09:26:18.287Z,2.95
2019-05-06T09:31:24.931Z,1.95
2019-05-06T09:36:39.824Z,1.32
2019-05-06T09:41:32.767Z,3.17
2019-05-06T09:46:35.786Z,1.70
2019-05-06T09:51:39.456Z,3.35
2019-05-06T09:56:47.740Z,5.65
2019-05-06T10:01:52.855Z,3.62
2019-05-06T10:06:59.778Z,3.22
2019-05-06T10:12:02.045Z,3.30
2019-05-06T10:17:05.549Z,2.87
2019-05-06T10:22:08.521Z,2.77
2019-05-06T10:27:12.084Z,5.05
2019-05-06T10:32:27.064Z,4.25
2019-05-06T10:37:42.244Z,2.25
2019-05-06T10:43:13.215Z,2.20
2019-05-06T10:48:16.182Z,2.35
2019-05-06T10:53:23.632Z,2.37
2019-05-06T10:58:26.762Z,2.90
2019-05-06T11:03:29.732Z,3.65
2019-05-06T11:08:32.842Z,5.30
2019-05-06T11:13:36.012Z,2.80
2019-05-06T11:18:39.098Z,2.83
2019-05-06T11:23:42.351Z,4.83
2019-05-06T11:28:49.326Z,3.52
2019-05-06T11:34:00.166Z,4.95
2019-05-06T11:39:05.268Z,2.67
2019-05-06T11:44:09.178Z,3.25
2019-05-06T11:49:12.625Z,3.17
2019-05-06T11:54:20.337Z,5.37
2019-05-06T11:59:22.692Z,2.75
2019-05-06T12:04:26.087Z,2.70
2019-05-06T12:09:29.146Z,6.22
2019-05-06T12:14:32.129Z,5.05
2019-05-06T12:19:35.128Z,3.90
2019-05-06T12:24:38.087Z,2.52
2019-05-06T12:29:42.857Z,2.50
2019-05-06T12:34:46.208Z,1.95
2019-05-06T12:39:53.558Z,2.80
2019-05-06T12:45:14.886Z,1.90
2019-05-06T12:50:18.024Z,3.30
2019-05-06T12:55:25.207Z,3.02
2019-05-06T13:00:30.829Z,4.05
2019-05-06T13:05:33.820Z,4.35
2019-05-06T13:10:36.773Z,3.98
2019-05-06T13:15:39.897Z,6.28
2019-05-06T13:20:50.077Z,6.92
2019-05-06T13:25:48.046Z,3.85
2019-05-06T13:30:53.174Z,3.87
2019-05-06T13:35:56.501Z,2.87
2019-05-06T13:40:59.874Z,3.90
2019-05-06T13:46:07.388Z,5.20
2019-05-06T13:51:14.279Z,4.20
2019-05-06T14:01:22.933Z,5.47
2019-05-06T14:06:26.540Z,4.90
2019-05-06T14:11:29.886Z,4.60
2019-05-06T14:16:33.572Z,4.37
2019-05-06T14:21:36.675Z,3.02
2019-05-06T14:26:45.753Z,3.87
2019-05-06T14:31:52.490Z,3.95
2019-05-06T14:41:57.830Z,7.33
2019-05-06T14:47:09.227Z,3.92
2019-05-06T14:52:13.158Z,3.92
2019-05-06T14:57:17.594Z,3.92
2019-05-06T15:02:26.083Z,3.75
2019-05-06T15:07:29.010Z,5.75
2019-05-06T15:12:33.436Z,5.22
2019-05-06T15:17:36.975Z,5.20
2019-05-06T15:22:42.062Z,7.03
2019-05-06T15:27:45.294Z,5.45
2019-05-06T15:32:48.294Z,5.20
2019-05-06T15:38:02.775Z,3.07
2019-05-06T15:43:05.865Z,3.20
2019-05-06T15:48:08.942Z,5.42
2019-05-06T15:53:12.631Z,3.58
2019-05-06T15:58:15.768Z,8.35
2019-05-06T16:03:18.770Z,5.97
2019-05-06T16:08:24.234Z,3.83
2019-05-06T16:13:26.830Z,5.35
2019-05-06T16:18:29.837Z,6.08
2019-05-06T16:23:42.312Z,4.70
2019-05-06T16:28:45.565Z,5.90
2019-05-06T16:33:48.647Z,6.12
2019-05-06T16:38:52.556Z,5.30
2019-05-06T16:43:57.340Z,5.35
2019-05-06T16:49:02.307Z,10.95
2019-05-06T16:54:05.284Z,5.40
2019-05-06T16:59:08.435Z,5.15
2019-05-06T17:04:19.583Z,6.08
2019-05-06T17:09:27.038Z,6.62
2019-05-06T17:14:27.437Z,5.58
2019-05-06T17:19:32.377Z,8.70
2019-05-06T17:24:35.588Z,10.85
2019-05-06T17:29:55.467Z,14.18
2019-05-06T17:34:58.684Z,16.15
2019-05-06T17:40:07.960Z,15.43
2019-05-06T17:45:25.914Z,13.62
2019-05-06T17:50:28.845Z,12.50
2019-05-06T17:55:32.795Z,11.70
2019-05-06T18:00:36.115Z,10.43
2019-05-06T18:05:39.108Z,12.18
2019-05-06T18:10:42.722Z,11.30
2019-05-06T18:15:45.968Z,10.58
2019-05-06T18:20:48.990Z,15.75
2019-05-06T18:25:53.025Z,12.47
2019-05-06T18:30:56.228Z,10.45
2019-05-06T18:35:59.279Z,13.55
2019-05-06T18:41:02.363Z,10.85
2019-05-06T18:46:05.402Z,11.57
2019-05-06T18:51:08.605Z,15.08
2019-05-06T18:56:12.738Z,12.13
2019-05-06T19:01:15.956Z,14.28
2019-05-06T19:06:19.076Z,13.53
2019-05-06T19:11:22.419Z,14.47
2019-05-06T19:16:25.693Z,18.35
2019-05-06T19:21:28.963Z,22.10
2019-05-06T19:26:32.730Z,20.55
2019-05-06T19:31:36.152Z,22.05
2019-05-06T19:36:39.161Z,22.75
2019-05-06T19:41:42.293Z,23.20
2019-05-06T19:46:45.336Z,26.90
2019-05-06T19:51:48.466Z,22.50
2019-05-06T19:56:52.720Z,26.93
2019-05-06T20:01:56.201Z,29.07
2019-05-06T20:07:05.244Z,29.48
2019-05-06T20:12:14.330Z,28.73
2019-05-06T20:17:17.348Z,26.30
2019-05-06T20:22:20.458Z,16.20
2019-05-06T20:27:23.685Z,18.45
2019-05-06T20:32:26.957Z,14.98
2019-05-06T20:37:30.092Z,14.50
2019-05-06T20:42:33.047Z,12.45
2019-05-06T20:47:36.598Z,14.20
2019-05-06T20:52:42.287Z,14.23
2019-05-06T20:57:44.993Z,11.20
2019-05-06T21:02:47.973Z,14.85
2019-05-06T21:07:52.623Z,13.70
2019-05-06T21:12:55.795Z,13.35
2019-05-06T21:18:03.602Z,14.05
2019-05-06T21:23:04.145Z,11.73
2019-05-06T21:28:07.181Z,20.17
2019-05-06T21:33:12.247Z,13.55
2019-05-06T21:38:15.191Z,8.83
2019-05-06T21:43:18.298Z,12.07
2019-05-06T21:48:22.221Z,10.20
2019-05-06T21:53:25.261Z,12.67
2019-05-06T21:58:28.236Z,13.45
2019-05-06T22:03:32.654Z,11.08
2019-05-06T22:08:35.906Z,10.88
2019-05-06T22:13:38.995Z,10.93
2019-05-06T22:18:43.226Z,10.87
2019-05-06T22:23:57.755Z,10.30
2019-05-06T22:29:02.059Z,12.35
2019-05-06T22:34:05.220Z,11.25
2019-05-06T22:39:08.235Z,12.55
2019-05-06T22:44:14.032Z,10.58
2019-05-06T22:49:16.033Z,14.25
2019-05-06T22:54:18.988Z,8.08
2019-05-06T22:59:25.003Z,11.90
2019-05-06T23:04:29.760Z,14.65
2019-05-06T23:09:32.776Z,18.48
2019-05-06T23:14:37.224Z,15.83
2019-05-06T23:19:42.623Z,11.88
2019-05-06T23:24:45.295Z,13.55
2019-05-06T23:29:48.646Z,22.05
2019-05-06T23:34:52.346Z,15.00
2019-05-06T23:40:52.164Z,12.20
2019-05-06T23:46:52.830Z,16.80
2019-05-06T23:52:52.013Z,14.87
2019-05-06T23:57:53.675Z,12.65
